createdAt,value
2023-03-17T00:05:56.581Z,23.31
2023-03-17T00:15:59.889Z,23.29
2023-03-17T00:26:03.077Z,23.29
2023-03-17T00:36:06.363Z,23.29
2023-03-17T00:46:09.598Z,23.29
2023-03-17T00:56:12.802Z,23.27
2023-03-17T01:06:15.945Z,23.27
2023-03-17T01:16:19.291Z,23.27
2023-03-17T01:26:25.061Z,23.26
2023-03-17T01:36:26.550Z,23.26
2023-03-17T01:46:29.705Z,23.26
2023-03-17T01:56:32.969Z,23.24
2023-03-17T02:06:42.161Z,23.26
2023-03-17T02:16:40.183Z,23.24
2023-03-17T02:26:43.375Z,23.24
2023-03-17T02:36:46.714Z,23.23
2023-03-17T02:46:49.961Z,23.23
2023-03-17T02:56:53.170Z,23.24
2023-03-17T03:06:56.332Z,23.23
2023-03-17T03:16:59.579Z,23.23
2023-03-17T03:27:02.751Z,23.23
2023-03-17T03:37:06.072Z,23.24
2023-03-17T03:47:09.225Z,23.23
2023-03-17T03:57:12.437Z,23.23
2023-03-17T04:07:15.598Z,23.20
2023-03-17T04:17:18.884Z,23.22
2023-03-17T04:27:22.054Z,23.24
2023-03-17T04:37:25.259Z,23.26
2023-03-17T04:47:28.410Z,23.29
2023-03-17T04:57:31.622Z,23.32
2023-03-17T05:07:34.775Z,23.31
2023-03-17T05:17:37.986Z,23.32
2023-03-17T05:27:41.147Z,23.32
2023-03-17T05:37:44.339Z,23.32
2023-03-17T05:47:47.496Z,23.31
2023-03-17T05:57:50.745Z,23.31
2023-03-17T06:07:56.366Z,23.27
2023-03-17T06:17:57.222Z,23.29
2023-03-17T06:28:00.377Z,23.32
2023-03-17T06:38:03.630Z,23.32
2023-03-17T06:48:06.799Z,23.31
2023-03-17T06:58:09.994Z,23.35
2023-03-17T07:08:13.182Z,23.40
2023-03-17T07:18:16.373Z,23.45
2023-03-17T07:28:19.571Z,23.46
2023-03-17T07:38:22.806Z,23.55
2023-03-17T07:48:25.957Z,23.60
2023-03-17T07:58:29.151Z,23.64
2023-03-17T08:08:32.298Z,23.70
2023-03-17T08:18:35.537Z,23.72
2023-03-17T08:28:38.732Z,23.76
2023-03-17T08:38:41.905Z,23.80
2023-03-17T08:48:45.063Z,23.82
2023-03-17T08:58:48.260Z,23.86
2023-03-17T09:08:51.428Z,23.89
2023-03-17T09:18:54.635Z,23.92
2023-03-17T09:28:57.797Z,23.94
2023-03-17T09:39:01.051Z,23.95
2023-03-17T09:49:04.220Z,23.94
2023-03-17T09:59:07.421Z,23.92
2023-03-17T10:09:10.576Z,23.94
2023-03-17T10:19:13.767Z,23.94
2023-03-17T10:29:16.912Z,23.95
2023-03-17T10:39:20.113Z,23.95
2023-03-17T10:49:23.273Z,23.97
2023-03-17T10:59:26.526Z,23.97
2023-03-17T11:09:29.703Z,24.00
2023-03-17T11:19:32.898Z,23.97
2023-03-17T11:29:36.053Z,23.98
2023-03-17T11:39:39.235Z,23.95
2023-03-17T11:49:42.372Z,23.98
2023-03-17T11:59:45.582Z,23.97
2023-03-17T12:09:48.728Z,23.98
2023-03-17T12:19:51.930Z,24.00
2023-03-17T12:29:55.076Z,23.97
2023-03-17T12:39:59.306Z,24.00
2023-03-17T12:50:02.458Z,23.98
2023-03-17T13:00:05.728Z,23.98
2023-03-17T13:10:08.895Z,23.98
2023-03-17T13:20:12.179Z,24.00
2023-03-17T13:30:15.343Z,24.00
2023-03-17T13:40:18.546Z,24.01
2023-03-17T13:50:21.720Z,24.01
2023-03-17T14:00:24.945Z,24.01
2023-03-17T14:10:28.135Z,24.01
2023-03-17T14:20:31.336Z,24.02
2023-03-17T14:30:34.503Z,24.02
2023-03-17T14:40:37.819Z,24.02
2023-03-17T14:50:41.027Z,24.01
2023-03-17T15:00:44.222Z,24.04
2023-03-17T15:10:47.432Z,24.04
2023-03-17T15:20:50.732Z,24.05
2023-03-17T15:30:54.457Z,24.04
2023-03-17T15:40:58.058Z,24.04
2023-03-17T15:51:01.232Z,24.02
2023-03-17T16:01:04.595Z,24.01
2023-03-17T16:11:07.857Z,24.02
2023-03-17T16:21:11.050Z,24.01
2023-03-17T16:31:14.387Z,24.01
2023-03-17T16:41:17.582Z,24.00
2023-03-17T16:51:20.755Z,24.00
2023-03-17T17:01:23.977Z,23.98
2023-03-17T17:11:27.136Z,23.98
2023-03-17T17:21:30.338Z,23.98
2023-03-17T17:31:33.567Z,24.00
2023-03-17T17:41:36.778Z,23.98
2023-03-17T17:51:39.934Z,23.98
2023-03-17T18:01:43.168Z,23.97
2023-03-17T18:11:46.328Z,23.97
2023-03-17T18:21:51.139Z,23.97
2023-03-17T18:31:54.368Z,23.97
2023-03-17T18:41:57.541Z,23.95
2023-03-17T18:52:00.699Z,23.97
2023-03-17T19:02:03.904Z,23.94
2023-03-17T19:12:07.064Z,23.98
2023-03-17T19:22:10.273Z,23.95
2023-03-17T19:32:13.450Z,23.95
2023-03-17T19:42:16.650Z,23.97
2023-03-17T19:52:19.880Z,23.95
2023-03-17T20:02:23.073Z,23.94
2023-03-17T20:12:26.219Z,23.95
2023-03-17T20:22:31.172Z,23.97
2023-03-17T20:53:30.242Z,23.92
2023-03-17T21:03:33.395Z,23.95
2023-03-17T21:13:36.614Z,23.94
2023-03-17T21:23:39.810Z,23.95
2023-03-17T21:33:43.077Z,23.95
2023-03-17T21:43:46.239Z,23.95
2023-03-17T21:53:49.442Z,23.95
2023-03-17T22:03:52.622Z,23.94
2023-03-17T22:13:55.803Z,23.95
2023-03-17T22:23:58.962Z,23.95
2023-03-17T22:34:02.183Z,23.94
2023-03-17T22:44:05.352Z,23.94
2023-03-17T22:54:08.567Z,23.94
2023-03-17T23:04:11.800Z,23.92
2023-03-17T23:14:15.011Z,23.90
2023-03-17T23:24:18.178Z,23.90
2023-03-17T23:34:21.370Z,23.87
2023-03-17T23:44:24.523Z,23.87
2023-03-17T23:54:27.735Z,23.86
